Time;durP1;ratioP1;P1;durP2;ratioP2;P2;SDS_P1;SDS_P2;PMS_P1;PMS_P2;Temp;Humidity;BMP_temperature;BMP_pressure;BME280_temperature;BME280_humidity;BME280_pressure;Samples;Min_cycle;Max_cycle;Signal;HPM_P1;HPM_P2
2022/07/03 00:01:38;6567.00;0.02;12.00;0.00;0.00;0.62;;;;;22.40;1.00;;;;;;2276375;61;1434;-88
2022/07/03 00:04:05;61992.00;0.21;107.92;0.00;0.00;0.62;;;;;22.40;1.00;;;;;;2276380;61;1299;-88
2022/07/03 00:06:34;0.00;0.00;0.62;0.00;0.00;0.62;;;;;22.40;1.00;;;;;;2276339;61;1042;-87
2022/07/03 00:09:03;86516.00;0.29;150.29;0.00;0.00;0.62;;;;;22.50;1.00;;;;;;2276420;61;1332;-88
2022/07/03 00:11:30;34362.00;0.11;60.13;0.00;0.00;0.62;;;;;22.50;1.00;;;;;;2276425;61;1033;-89
2022/07/03 00:13:57;129677.00;0.43;224.77;0.00;0.00;0.62;;;;;22.70;1.00;;;;;;2276473;61;1094;-89
2022/07/03 00:16:24;187394.00;0.62;324.22;40295.00;0.13;70.40;;;;;23.00;1.00;;;;;;2276329;61;2012;-88
2022/07/03 00:18:51;59355.00;0.20;103.36;0.00;0.00;0.62;;;;;23.10;1.00;;;;;;2276175;61;1292;-87
2022/07/03 00:21:23;34744.00;0.12;60.79;0.00;0.00;0.62;;;;;23.00;1.00;;;;;;2276387;61;1576;-88
2022/07/03 00:23:57;107038.00;0.36;185.72;0.00;0.00;0.62;;;;;22.90;1.00;;;;;;2276329;61;921;-90
2022/07/03 00:26:29;138897.00;0.46;240.67;0.00;0.00;0.62;;;;;22.80;1.00;;;;;;2276393;61;1093;-88
2022/07/03 00:31:24;120138.00;0.40;208.32;0.00;0.00;0.62;;;;;22.80;1.00;;;;;;2277888;61;1354;-88
2022/07/03 00:33:55;15425.00;0.05;27.35;0.00;0.00;0.62;;;;;22.80;1.00;;;;;;2276405;61;951;-88
2022/07/03 00:36:23;28680.00;0.10;50.30;0.00;0.00;0.62;;;;;22.80;1.00;;;;;;2276233;61;1996;-89
2022/07/03 00:38:50;95310.00;0.32;165.48;0.00;0.00;0.62;;;;;22.80;1.00;;;;;;2276291;61;1333;-91
2022/07/03 00:41:28;116290.00;0.39;201.68;0.00;0.00;0.62;;;;;22.80;1.00;;;;;;2276325;61;948;-87
2022/07/03 00:43:55;44970.00;0.15;78.49;0.00;0.00;0.62;;;;;22.90;1.00;;;;;;2276346;61;1167;-90
2022/07/03 00:46:23;140688.00;0.47;243.76;0.00;0.00;0.62;;;;;22.80;1.00;;;;;;2276317;61;1082;-88
2022/07/03 00:48:52;560098.00;1.87;965.37;45903.00;0.15;80.10;;;;;22.90;1.00;;;;;;2276075;61;1432;-88
2022/07/03 00:51:23;9076.00;0.03;16.35;0.00;0.00;0.62;;;;;22.90;1.00;;;;;;2276255;61;1078;-87
2022/07/03 00:53:52;69532.00;0.23;120.95;0.00;0.00;0.62;;;;;22.80;1.00;;;;;;2276234;61;1003;-88
2022/07/03 00:56:24;53046.00;0.18;92.45;0.00;0.00;0.62;;;;;22.70;1.00;;;;;;2276078;61;2006;-88
2022/07/03 00:58:54;123498.00;0.41;214.12;0.00;0.00;0.62;;;;;22.70;1.00;;;;;;2276189;61;2357;-88
2022/07/03 01:01:23;0.00;0.00;0.62;0.00;0.00;0.62;;;;;22.70;1.00;;;;;;2275987;61;1028;-89
2022/07/03 01:04:01;93266.00;0.31;161.95;0.00;0.00;0.62;;;;;22.70;1.00;;;;;;2276139;61;1022;-87
2022/07/03 01:06:36;0.00;0.00;0.62;0.00;0.00;0.62;;;;;22.90;1.00;;;;;;2276241;61;1170;-86
2022/07/03 01:09:06;74230.00;0.25;129.07;0.00;0.00;0.62;;;;;22.90;1.00;;;;;;2276183;61;1540;-87
2022/07/03 01:11:39;0.00;0.00;0.62;0.00;0.00;0.62;;;;;22.80;1.00;;;;;;2276177;61;1043;-88
2022/07/03 01:14:16;71174.00;0.24;123.79;0.00;0.00;0.62;;;;;22.70;1.00;;;;;;2276279;61;949;-87
2022/07/03 01:16:53;0.00;0.00;0.62;0.00;0.00;0.62;;;;;22.50;1.00;;;;;;2276256;61;1980;-87
2022/07/03 01:19:38;0.00;0.00;0.62;0.00;0.00;0.62;;;;;22.70;1.00;;;;;;2276085;61;1432;-88
2022/07/03 01:22:28;0.00;0.00;0.62;0.00;0.00;0.62;;;;;22.90;1.00;;;;;;2276162;61;1083;-87
2022/07/03 01:25:12;109648.00;0.37;190.22;0.00;0.00;0.62;;;;;23.10;1.00;;;;;;2276245;61;1089;-89
2022/07/03 01:27:57;10998.00;0.04;19.68;0.00;0.00;0.62;;;;;23.10;1.00;;;;;;2276164;61;1126;-87
2022/07/03 01:30:25;99541.00;0.33;172.78;0.00;0.00;0.62;;;;;22.90;1.00;;;;;;2276479;61;1382;-88
2022/07/03 01:32:58;362629.00;1.21;625.57;31208.00;0.10;54.67;;;;;22.60;1.00;;;;;;2276835;61;1031;-88
2022/07/03 01:35:32;0.00;0.00;0.62;0.00;0.00;0.62;;;;;22.40;1.00;;;;;;2276842;61;1136;-87
2022/07/03 01:38:04;21495.00;0.07;37.86;0.00;0.00;0.62;;;;;22.30;1.00;;;;;;2276878;61;1993;-88
2022/07/03 01:40:33;118121.00;0.39;204.84;0.00;0.00;0.62;;;;;22.30;1.00;;;;;;2276653;61;1574;-88
2022/07/03 01:43:04;84115.00;0.28;146.14;5310.00;0.02;9.82;;;;;22.30;1.00;;;;;;2276300;61;1482;-88
2022/07/03 01:45:34;224293.00;0.75;387.73;0.00;0.00;0.62;;;;;22.50;1.00;;;;;;2276907;61;971;-89
2022/07/03 01:48:03;226488.00;0.75;391.51;0.00;0.00;0.62;;;;;22.60;1.00;;;;;;2276823;61;1080;-87
2022/07/03 01:50:31;116667.00;0.39;202.33;0.00;0.00;0.62;;;;;22.60;1.00;;;;;;2276879;61;1304;-90
2022/07/03 01:53:02;0.00;0.00;0.62;0.00;0.00;0.62;;;;;22.60;1.00;;;;;;2276842;61;1020;-89
2022/07/03 01:55:32;0.00;0.00;0.62;0.00;0.00;0.62;;;;;22.80;1.00;;;;;;2276737;61;1050;-88
2022/07/03 01:58:00;144472.00;0.48;250.28;17555.00;0.06;31.04;;;;;22.50;1.00;;;;;;2276776;61;1955;-87
2022/07/03 02:00:29;189710.00;0.63;328.21;22733.00;0.08;40.00;;;;;22.00;1.00;;;;;;2276817;61;1404;-88
2022/07/03 02:03:02;36151.00;0.12;63.23;0.00;0.00;0.62;;;;;21.90;1.00;;;;;;2293915;40;3583;-86
2022/07/03 02:05:39;158918.00;0.53;275.18;0.00;0.00;0.62;;;;;21.60;1.00;;;;;;2276769;61;1041;-87
2022/07/03 02:08:27;225951.00;0.75;390.58;61048.00;0.20;106.29;;;;;21.30;1.00;;;;;;2276786;61;1109;-89
2022/07/03 02:11:09;132893.00;0.44;230.32;0.00;0.00;0.62;;;;;21.20;1.00;;;;;;2272754;61;1544;-89
2022/07/03 02:13:40;66772.00;0.22;116.18;0.00;0.00;0.62;;;;;20.60;1.00;;;;;;2272687;61;1556;-87
2022/07/03 02:16:13;181136.00;0.60;313.45;0.00;0.00;0.62;;;;;20.30;1.00;;;;;;2272750;61;1012;-88
2022/07/03 02:18:41;72347.00;0.24;125.82;0.00;0.00;0.62;;;;;20.10;1.00;;;;;;2272659;61;1417;-88
2022/07/03 02:21:21;77918.00;0.26;135.44;0.00;0.00;0.62;;;;;19.90;1.00;;;;;;2272703;61;1059;-89
2022/07/03 02:23:59;137412.00;0.46;238.11;0.00;0.00;0.62;;;;;19.80;1.00;;;;;;2272607;61;1045;-87
2022/07/03 02:26:30;56127.00;0.19;97.78;0.00;0.00;0.62;;;;;19.50;1.00;;;;;;2272667;61;1549;-90
2022/07/03 02:29:02;26583.00;0.09;46.67;0.00;0.00;0.62;;;;;19.50;1.00;;;;;;2272596;61;1444;-87
2022/07/03 02:31:38;15305.00;0.05;27.14;0.00;0.00;0.62;;;;;19.60;1.00;;;;;;2272593;61;957;-88
2022/07/03 02:34:07;48694.00;0.16;84.93;0.00;0.00;0.62;;;;;20.00;1.00;;;;;;2272684;61;1034;-85
2022/07/03 02:36:36;75823.00;0.25;131.82;0.00;0.00;0.62;;;;;20.30;1.00;;;;;;2272636;61;2002;-87
2022/07/03 02:39:09;314724.00;1.05;543.23;92921.00;0.31;161.35;;;;;20.70;1.00;;;;;;2272519;61;1340;-87
2022/07/03 02:41:44;244929.00;0.82;423.23;51062.00;0.17;89.02;;;;;20.80;1.00;;;;;;2272426;61;1028;-88
2022/07/03 02:44:22;124759.00;0.42;216.29;0.00;0.00;0.62;;;;;21.00;1.00;;;;;;2272639;61;1089;-89
2022/07/03 02:47:01;101084.00;0.34;175.44;0.00;0.00;0.62;;;;;21.00;1.00;;;;;;2272568;61;1049;-86
2022/07/03 02:49:54;83870.00;0.28;145.72;0.00;0.00;0.62;;;;;20.80;1.00;;;;;;2272169;61;1421;-88
2022/07/03 02:52:33;309562.00;1.03;534.36;85447.00;0.28;148.45;;;;;20.70;1.00;;;;;;2268090;61;1058;-88
2022/07/03 02:55:08;4959.00;0.02;9.21;0.00;0.00;0.62;;;;;20.60;1.00;;;;;;2268483;61;963;-88
2022/07/03 02:57:40;122266.00;0.41;211.99;0.00;0.00;0.62;;;;;20.60;1.00;;;;;;2268465;61;2002;-89
2022/07/03 03:00:08;73453.00;0.24;127.73;0.00;0.00;0.62;;;;;20.50;1.00;;;;;;2268412;61;1349;-88
2022/07/03 03:02:53;63159.00;0.21;109.94;0.00;0.00;0.62;;;;;20.60;1.00;;;;;;2268489;61;1601;-89
2022/07/03 03:05:27;27296.00;0.09;47.90;0.00;0.00;0.62;;;;;20.70;1.00;;;;;;2268195;61;2205;-87
2022/07/03 03:08:06;0.00;0.00;0.62;0.00;0.00;0.62;;;;;20.80;1.00;;;;;;2268527;61;2306;-89
2022/07/03 03:10:37;141259.00;0.47;244.74;0.00;0.00;0.62;;;;;20.90;1.00;;;;;;2268455;61;1590;-89
2022/07/03 03:13:05;433946.00;1.45;748.17;76123.00;0.25;132.34;;;;;21.00;1.00;;;;;;2268473;61;1043;-87
2022/07/03 03:15:33;24321.00;0.08;42.75;0.00;0.00;0.62;;;;;21.10;1.00;;;;;;2268498;61;1087;-89
2022/07/03 03:18:07;0.00;0.00;0.62;0.00;0.00;0.62;;;;;21.20;1.00;;;;;;2268459;61;2003;-87
2022/07/03 03:20:35;0.00;0.00;0.62;0.00;0.00;0.62;;;;;21.10;1.00;;;;;;2268444;61;1627;-87
2022/07/03 03:23:20;5115.00;0.02;9.48;0.00;0.00;0.62;;;;;21.00;1.00;;;;;;2268481;61;1067;-88
2022/07/03 03:25:47;45276.00;0.15;79.02;0.00;0.00;0.62;;;;;21.10;1.00;;;;;;2268528;61;964;-88
2022/07/03 03:28:15;237134.00;0.79;409.82;68251.00;0.23;118.74;;;;;20.90;1.00;;;;;;2268403;61;1025;-87
2022/07/03 03:30:42;103790.00;0.35;180.11;0.00;0.00;0.62;;;;;20.80;1.00;;;;;;2268393;61;1726;-87
2022/07/03 03:33:12;306048.00;1.02;528.32;0.00;0.00;0.62;;;;;20.90;1.00;;;;;;2268483;61;897;-89
2022/07/03 03:35:40;29661.00;0.10;52.00;0.00;0.00;0.62;;;;;20.80;1.00;;;;;;2268407;61;1072;-89
2022/07/03 03:38:07;138956.00;0.46;240.77;0.00;0.00;0.62;;;;;20.70;1.00;;;;;;2268342;61;1910;-88
2022/07/03 03:40:35;85291.00;0.28;148.18;0.00;0.00;0.62;;;;;20.20;1.00;;;;;;2268400;61;1315;-87
2022/07/03 03:43:03;111360.00;0.37;193.18;0.00;0.00;0.62;;;;;20.30;1.00;;;;;;2268367;61;920;-86
2022/07/03 03:45:31;90933.00;0.30;157.92;0.00;0.00;0.62;;;;;19.90;1.00;;;;;;2268354;61;1293;-88
2022/07/03 03:47:58;172613.00;0.58;298.77;24762.00;0.08;43.52;;;;;19.50;1.00;;;;;;2268306;61;1223;-87
2022/07/03 03:50:26;1097050.00;3.66;1905.15;315376.00;1.05;544.35;;;;;19.10;1.00;;;;;;2268333;61;1428;-87
2022/07/03 03:52:53;207689.00;0.69;359.16;0.00;0.00;0.62;;;;;18.90;1.00;;;;;;2268122;61;1111;-88
2022/07/03 03:55:20;299933.00;1.00;517.80;0.00;0.00;0.62;;;;;19.20;1.00;;;;;;2268293;61;1083;-87
2022/07/03 03:57:50;347754.00;1.16;600.00;25541.00;0.09;44.86;;;;;19.80;1.00;;;;;;2268172;61;1910;-86
2022/07/03 04:00:17;414900.00;1.38;715.42;46716.00;0.16;81.51;;;;;19.90;1.00;;;;;;2268235;61;1408;-88
2022/07/03 04:02:44;116401.00;0.39;201.87;0.00;0.00;0.62;;;;;19.60;1.00;;;;;;2268255;61;999;-89
2022/07/03 04:05:11;223171.00;0.74;385.80;0.00;0.00;0.62;;;;;19.80;1.00;;;;;;2268311;61;1050;-88
2022/07/03 04:07:39;539346.00;1.80;929.60;32493.00;0.11;56.90;;;;;19.80;1.00;;;;;;2268265;61;1101;-89
2022/07/03 04:10:07;254752.00;0.85;440.12;0.00;0.00;0.62;;;;;19.80;1.00;;;;;;2268311;61;1399;-88
2022/07/03 04:12:34;165535.00;0.55;286.58;26954.00;0.09;47.31;;;;;20.00;1.00;;;;;;2268352;61;1298;-88
2022/07/03 04:15:01;66341.00;0.22;115.44;0.00;0.00;0.62;;;;;20.00;1.00;;;;;;2268219;61;1118;-89
2022/07/03 04:17:28;407383.00;1.36;702.50;39368.00;0.13;68.79;;;;;20.40;1.00;;;;;;2268287;61;1910;-89
2022/07/03 04:19:55;532347.00;1.77;917.54;14882.00;0.05;26.41;;;;;20.80;1.00;;;;;;2268159;61;1373;-89
2022/07/03 04:22:22;403975.00;1.35;696.64;15020.00;0.05;26.65;;;;;20.70;1.00;;;;;;2268131;61;1037;-88
2022/07/03 04:24:51;674963.00;2.25;1163.85;64008.00;0.21;111.40;;;;;20.80;1.00;;;;;;2268086;61;1708;-88
2022/07/03 04:27:17;524137.00;1.75;903.39;67678.00;0.23;117.75;;;;;21.10;1.00;;;;;;2268139;61;1749;-88
2022/07/03 04:29:44;573890.00;1.91;989.16;68389.00;0.23;118.98;;;;;21.30;1.00;;;;;;2268251;61;2073;-88
2022/07/03 04:32:11;507146.00;1.69;874.13;22884.00;0.08;40.26;;;;;21.30;1.00;;;;;;2268112;61;1529;-87
2022/07/03 04:34:38;657276.00;2.19;1133.23;34166.00;0.11;59.79;;;;;21.40;1.00;;;;;;2268269;61;1029;-87
2022/07/03 04:37:05;662484.00;2.21;1142.24;12137.00;0.04;21.65;;;;;21.40;1.00;;;;;;2282939;56;3751;-87
2022/07/03 04:39:32;769747.00;2.57;1328.41;14518.00;0.05;25.78;;;;;21.40;1.00;;;;;;2277940;61;1407;-88
2022/07/03 04:44:36;1242957.00;4.14;2168.08;8723.00;0.03;15.74;;;;;21.30;1.00;;;;;;1985542;59;2775;-88
2022/07/03 04:47:03;510508.00;1.70;879.92;31926.00;0.11;55.92;;;;;21.30;1.00;;;;;;2276846;61;1074;-90
2022/07/03 04:49:30;695589.00;2.32;1199.59;20514.00;0.07;36.16;;;;;21.30;1.00;;;;;;2276856;61;1214;-89
2022/07/03 04:54:24;621932.00;2.07;1072.10;26240.00;0.09;46.07;;;;;21.30;1.00;;;;;;2278272;61;1288;-88
2022/07/03 04:56:51;815720.00;2.72;1408.55;65287.00;0.22;113.62;;;;;21.40;1.00;;;;;;2276184;61;1580;-88
2022/07/03 04:59:18;899684.00;3.00;1555.57;63469.00;0.21;110.47;;;;;21.20;1.00;;;;;;2276124;61;1973;-89
2022/07/03 05:01:49;571299.00;1.90;984.69;0.00;0.00;0.62;;;;;20.70;1.00;;;;;;2276279;61;1042;-89
2022/07/03 05:04:16;574625.00;1.92;990.43;84635.00;0.28;147.04;;;;;20.40;1.00;;;;;;2276447;61;1197;-87
2022/07/03 05:06:43;704953.00;2.35;1215.83;31649.00;0.11;55.44;;;;;20.30;1.00;;;;;;2276959;61;925;-88
2022/07/03 05:09:10;930593.00;3.10;1609.92;48679.00;0.16;84.90;;;;;20.50;1.00;;;;;;2276898;61;1272;-88
2022/07/03 05:11:38;641265.00;2.14;1105.53;19121.00;0.06;33.75;;;;;20.70;1.00;;;;;;2282004;40;3587;-87
2022/07/03 05:16:34;1185445.00;3.95;2063.93;106135.00;0.35;184.16;;;;;20.30;1.00;;;;;;2278194;61;1434;-88
2022/07/03 05:19:03;798483.00;2.66;1378.48;76672.00;0.26;133.29;;;;;20.50;1.00;;;;;;2276774;61;1991;-89
2022/07/03 05:21:31;750789.00;2.50;1295.43;28264.00;0.09;49.58;;;;;20.70;1.00;;;;;;2276959;61;1003;-89
2022/07/03 05:26:32;922254.00;3.07;1595.24;29758.00;0.10;52.16;;;;;20.40;1.00;;;;;;2278864;61;1428;-88
2022/07/03 05:28:59;912250.00;3.04;1577.65;95627.00;0.32;166.02;;;;;20.50;1.00;;;;;;2276671;61;2217;-88
2022/07/03 05:31:25;1427412.00;4.76;2507.26;86440.00;0.29;150.16;;;;;20.60;1.00;;;;;;2276852;61;1061;-86
2022/07/03 05:33:52;877763.00;2.93;1517.10;80674.00;0.27;140.20;;;;;20.80;1.00;;;;;;2276610;61;1732;-88
2022/07/03 05:36:21;983378.00;3.28;1703.05;68474.00;0.23;119.12;;;;;20.70;1.00;;;;;;2276901;61;933;-89
2022/07/03 05:41:32;827626.00;2.76;1429.35;71437.00;0.24;124.24;;;;;21.50;1.00;;;;;;2276853;61;658;-89
2022/07/03 05:43:59;1049577.00;3.50;1820.48;123660.00;0.41;214.40;;;;;21.50;1.00;;;;;;2276840;61;1747;-89
2022/07/03 05:46:26;1103644.00;3.68;1916.94;113947.00;0.38;197.64;;;;;22.70;1.00;;;;;;2276584;61;1720;-88
2022/07/03 05:48:53;221371.00;0.74;382.70;73543.00;0.25;127.88;;;;;24.90;1.00;;;;;;2287160;55;3770;-87
2022/07/03 05:51:21;178039.00;0.59;308.11;74094.00;0.25;128.83;;;;;27.50;1.00;;;;;;2272612;61;1698;-90
2022/07/03 05:53:48;239199.00;0.80;413.37;68702.00;0.23;119.52;;;;;29.20;1.00;;;;;;2272692;61;1114;-90
2022/07/03 05:56:15;213496.00;0.71;369.15;69920.00;0.23;121.62;;;;;30.70;1.00;;;;;;2272750;61;1727;-88
2022/07/03 05:58:42;206765.00;0.69;357.57;59197.00;0.20;103.09;;;;;31.80;1.00;;;;;;2272612;61;1927;-89
2022/07/03 06:01:09;262355.00;0.87;453.20;66069.00;0.22;114.97;;;;;32.90;1.00;;;;;;2272785;61;1018;-90
2022/07/03 06:03:35;180082.00;0.60;311.63;56571.00;0.19;98.55;;;;;33.70;1.00;;;;;;2272670;61;1045;-88
2022/07/03 06:06:02;197893.00;0.66;342.30;52476.00;0.17;91.47;;;;;34.50;1.00;;;;;;2272669;61;1036;-90
2022/07/03 06:08:31;438974.00;1.46;756.82;85782.00;0.29;149.02;;;;;34.80;1.00;;;;;;2272601;61;1402;-90
2022/07/03 06:10:58;190612.00;0.64;329.76;52003.00;0.17;90.65;;;;;35.10;1.00;;;;;;2272590;61;1122;-90
2022/07/03 06:13:24;1501611.00;5.01;2646.15;138308.00;0.46;239.65;;;;;35.70;1.00;;;;;;2272567;61;1973;-90
2022/07/03 06:15:51;205569.00;0.69;355.51;47303.00;0.16;82.52;;;;;36.60;1.00;;;;;;2272517;61;1063;-89
2022/07/03 06:18:18;1427975.00;4.76;2508.31;137865.00;0.46;238.89;;;;;36.70;1.00;;;;;;2272421;61;1997;-91
2022/07/03 06:20:45;210068.00;0.70;363.25;0.00;0.00;0.62;;;;;36.80;1.00;;;;;;2272337;61;1726;-89
2022/07/03 06:23:12;25784.00;0.09;45.28;0.00;0.00;0.62;;;;;37.10;1.00;;;;;;2272659;61;1428;-90
2022/07/03 06:25:40;813.00;0.00;2.03;0.00;0.00;0.62;;;;;37.10;1.00;;;;;;2272686;61;1063;-87
2022/07/03 06:28:07;0.00;0.00;0.62;0.00;0.00;0.62;;;;;36.60;1.00;;;;;;2272657;61;925;-88
2022/07/03 06:30:34;181322.00;0.60;313.77;61387.00;0.20;106.87;;;;;36.70;1.00;;;;;;2272569;61;1379;-88
2022/07/03 06:33:01;7020.00;0.02;12.79;0.00;0.00;0.62;;;;;36.60;1.00;;;;;;2272579;61;1070;-88
2022/07/03 06:35:28;0.00;0.00;0.62;0.00;0.00;0.62;;;;;36.40;1.00;;;;;;2272684;61;1038;-89
2022/07/03 06:37:55;97635.00;0.33;169.49;5763.00;0.02;10.61;;;;;36.50;1.00;;;;;;2272497;61;1927;-88
2022/07/03 06:40:22;67061.00;0.22;116.68;0.00;0.00;0.62;;;;;36.90;1.00;;;;;;2272605;61;1383;-87
2022/07/03 06:42:50;22322.00;0.07;39.29;0.00;0.00;0.62;;;;;37.80;1.00;;;;;;2272677;61;1009;-89
2022/07/03 06:45:17;5025.00;0.02;9.33;0.00;0.00;0.62;;;;;38.10;1.00;;;;;;2272631;61;2235;-89
2022/07/03 06:47:44;190005.00;0.63;328.72;37505.00;0.13;65.57;;;;;38.20;1.00;;;;;;2272547;61;1114;-88
2022/07/03 06:50:11;0.00;0.00;0.62;0.00;0.00;0.62;;;;;38.70;1.00;;;;;;2272537;61;1327;-87
2022/07/03 06:52:37;196693.00;0.66;340.23;16557.00;0.06;29.31;;;;;38.10;1.00;;;;;;2272549;61;1531;-88
2022/07/03 06:55:05;0.00;0.00;0.62;0.00;0.00;0.62;;;;;38.60;1.00;;;;;;2272376;61;940;-87
2022/07/03 06:57:32;255945.00;0.85;442.18;124140.00;0.41;215.22;;;;;38.90;1.00;;;;;;2272512;61;1031;-90
2022/07/03 07:00:00;0.00;0.00;0.62;0.00;0.00;0.62;;;;;38.90;1.00;;;;;;2272360;61;2033;-88
2022/07/03 07:02:27;79018.00;0.26;137.34;0.00;0.00;0.62;;;;;38.60;1.00;;;;;;2272597;61;1012;-89
2022/07/03 07:04:54;0.00;0.00;0.62;0.00;0.00;0.62;;;;;38.90;1.00;;;;;;2272422;61;1712;-90
2022/07/03 07:07:21;45542.00;0.15;79.48;0.00;0.00;0.62;;;;;38.80;1.00;;;;;;2272439;61;1031;-89
2022/07/03 07:09:48;621007.00;2.07;1070.51;62694.00;0.21;109.13;;;;;38.80;1.00;;;;;;2272486;61;2207;-88
2022/07/03 07:12:15;538672.00;1.80;928.43;26681.00;0.09;46.84;;;;;39.10;1.00;;;;;;2272461;61;933;-88
2022/07/03 07:14:43;257739.00;0.86;445.26;64660.00;0.22;112.53;;;;;39.60;1.00;;;;;;2272537;61;1126;-89
2022/07/03 07:17:11;0.00;0.00;0.62;0.00;0.00;0.62;;;;;39.60;1.00;;;;;;2272508;61;1089;-88
2022/07/03 07:19:38;0.00;0.00;0.62;0.00;0.00;0.62;;;;;39.90;1.00;;;;;;2272222;61;1997;-89
2022/07/03 07:22:05;682671.00;2.28;1177.20;66334.00;0.22;115.43;;;;;40.60;1.00;;;;;;2272419;61;1129;-89
2022/07/03 07:24:32;1143731.00;3.81;1988.81;56324.00;0.19;98.12;;;;;40.80;1.00;;;;;;2272485;61;1082;-89
2022/07/03 07:27:01;372098.00;1.24;641.84;59079.00;0.20;102.88;;;;;40.30;1.00;;;;;;2272310;61;1142;-88
2022/07/03 07:29:28;118542.00;0.40;205.57;0.00;0.00;0.62;;;;;41.10;1.00;;;;;;2272206;61;1408;-87
2022/07/03 07:31:55;238090.00;0.79;411.47;0.00;0.00;0.62;;;;;41.00;1.00;;;;;;2272357;61;1460;-88
2022/07/03 07:34:24;614555.00;2.05;1059.36;10847.00;0.04;19.42;;;;;40.80;1.00;;;;;;2272460;61;1045;-90
2022/07/03 07:36:51;350123.00;1.17;604.07;0.00;0.00;0.62;;;;;40.90;1.00;;;;;;2272472;61;1034;-87
2022/07/03 07:39:17;74093.00;0.25;128.83;0.00;0.00;0.62;;;;;40.60;1.00;;;;;;2272363;61;1958;-87
2022/07/03 07:41:44;91976.00;0.31;159.72;0.00;0.00;0.62;;;;;41.00;1.00;;;;;;2272429;61;897;-89
2022/07/03 07:44:11;476820.00;1.59;821.93;0.00;0.00;0.62;;;;;41.80;1.00;;;;;;2272065;61;1608;-87
2022/07/03 07:46:38;1673546.00;5.58;2974.14;124929.00;0.42;216.58;;;;;41.30;1.00;;;;;;2271886;61;2108;-88
2022/07/03 07:49:05;166559.00;0.56;288.34;61781.00;0.21;107.56;;;;;41.30;1.00;;;;;;2271827;61;1240;-89
2022/07/03 07:51:33;255983.00;0.85;442.24;50558.00;0.17;88.15;;;;;41.20;1.00;;;;;;2272052;61;1126;-88
2022/07/03 07:54:00;124321.00;0.41;215.54;2143.00;0.01;4.33;;;;;40.80;1.00;;;;;;2272088;61;978;-87
2022/07/03 07:56:28;230279.00;0.77;398.03;0.00;0.00;0.62;;;;;40.70;1.00;;;;;;2272027;61;1070;-89
2022/07/03 07:58:55;118939.00;0.40;206.25;0.00;0.00;0.62;;;;;41.20;1.00;;;;;;2271991;61;1994;-87
2022/07/03 08:06:52;92268.00;0.31;160.22;0.00;0.00;0.62;;;;;39.80;1.00;;;;;;2272026;61;650;-90
2022/07/03 08:09:19;355004.00;1.18;612.46;0.00;0.00;0.62;;;;;39.80;1.00;;;;;;2271944;61;1615;-88
2022/07/03 08:11:46;171026.00;0.57;296.03;0.00;0.00;0.62;;;;;40.90;1.00;;;;;;2271876;61;1099;-90
2022/07/03 08:14:13;104980.00;0.35;182.17;0.00;0.00;0.62;;;;;40.80;1.00;;;;;;2275666;55;3768;-88
2022/07/03 08:16:40;189367.00;0.63;327.62;0.00;0.00;0.62;;;;;41.10;1.00;;;;;;2279928;61;1688;-87
2022/07/03 08:19:08;276432.00;0.92;477.40;26598.00;0.09;46.69;;;;;41.10;1.00;;;;;;2278998;61;1921;-89
2022/07/03 08:21:35;172190.00;0.57;298.04;0.00;0.00;0.62;;;;;41.10;1.00;;;;;;2275857;61;1158;-88
2022/07/03 08:24:04;73988.00;0.25;128.65;0.00;0.00;0.62;;;;;40.50;1.00;;;;;;2275937;61;1228;-89
2022/07/03 08:26:31;233963.00;0.78;404.37;0.00;0.00;0.62;;;;;40.30;1.00;;;;;;2303302;56;3776;-87
2022/07/03 08:28:58;108779.00;0.36;188.72;0.00;0.00;0.62;;;;;40.20;1.00;;;;;;2275072;61;2203;-87
2022/07/03 08:31:25;84888.00;0.28;147.48;0.00;0.00;0.62;;;;;39.70;1.00;;;;;;2271813;61;1923;-88
2022/07/03 08:33:52;28949.00;0.10;50.76;0.00;0.00;0.62;;;;;39.60;1.00;;;;;;2271840;61;892;-88
2022/07/03 08:36:19;240256.00;0.80;415.19;0.00;0.00;0.62;;;;;39.60;1.00;;;;;;2271975;61;1126;-90
2022/07/03 08:38:47;127959.00;0.43;221.81;0.00;0.00;0.62;;;;;39.70;1.00;;;;;;2271485;61;2008;-88
2022/07/03 08:41:17;169292.00;0.56;293.05;0.00;0.00;0.62;;;;;39.50;1.00;;;;;;2271719;61;1002;-90
2022/07/03 08:43:45;420365.00;1.40;724.82;75304.00;0.25;130.92;;;;;39.40;1.00;;;;;;2272007;61;1647;-88
2022/07/03 08:46:13;269244.00;0.90;465.04;54671.00;0.18;95.26;;;;;39.40;1.00;;;;;;2271802;61;1043;-89
2022/07/03 08:48:42;305526.00;1.02;527.42;54378.00;0.18;94.76;;;;;39.60;1.00;;;;;;2272013;61;1305;-88
2022/07/03 08:51:09;452492.00;1.51;780.07;59719.00;0.20;103.99;;;;;39.40;1.00;;;;;;2290501;55;3764;-90
2022/07/03 08:53:39;228668.00;0.76;395.26;0.00;0.00;0.62;;;;;38.80;1.00;;;;;;2286601;40;3582;-87
2022/07/03 08:56:09;228728.00;0.76;395.36;0.00;0.00;0.62;;;;;38.90;1.00;;;;;;2275768;61;1090;-89
2022/07/03 08:58:39;286740.00;0.96;495.12;0.00;0.00;0.62;;;;;38.50;1.00;;;;;;2275648;61;1997;-88
2022/07/03 09:01:10;296285.00;0.99;511.53;0.00;0.00;0.62;;;;;38.40;1.00;;;;;;2271670;61;1719;-91
2022/07/03 09:03:38;772737.00;2.58;1333.62;25798.00;0.09;45.31;;;;;38.40;1.00;;;;;;2281638;55;3760;-87
2022/07/03 09:06:06;164080.00;0.55;284.07;0.00;0.00;0.62;;;;;38.30;1.00;;;;;;2275562;61;1133;-88
2022/07/03 09:08:37;452724.00;1.51;780.47;0.00;0.00;0.62;;;;;38.10;1.00;;;;;;2290451;56;3874;-88
2022/07/03 09:11:05;324922.00;1.08;560.76;0.00;0.00;0.62;;;;;38.00;1.00;;;;;;2271794;61;1024;-88
2022/07/03 09:13:32;51043.00;0.17;88.99;0.00;0.00;0.62;;;;;38.00;1.00;;;;;;2271740;61;1045;-89
2022/07/03 09:16:00;118419.00;0.39;205.36;0.00;0.00;0.62;;;;;37.90;1.00;;;;;;2284008;40;3597;-86
2022/07/03 09:18:41;692191.00;2.31;1193.70;64917.00;0.22;112.98;;;;;37.80;1.00;;;;;;2275864;61;2294;-89
2022/07/03 09:21:09;248866.00;0.83;430.00;0.00;0.00;0.62;;;;;36.00;1.00;;;;;;2272042;61;1090;-87
2022/07/03 09:23:38;692582.00;2.31;1194.38;32010.00;0.11;56.06;;;;;36.00;1.00;;;;;;2271750;61;1792;-88
2022/07/03 09:28:51;408609.00;1.36;704.61;26472.00;0.09;46.48;;;;;35.70;1.00;;;;;;2281661;61;1530;-88
2022/07/03 09:31:21;541239.00;1.80;932.86;0.00;0.00;0.62;;;;;35.60;1.00;;;;;;2276160;61;1125;-89
2022/07/03 09:33:59;0.00;0.00;0.62;0.00;0.00;0.62;;;;;35.40;1.00;;;;;;2276168;61;971;-90
2022/07/03 09:36:41;0.00;0.00;0.62;0.00;0.00;0.62;;;;;34.90;1.00;;;;;;2276089;61;1106;-89
2022/07/03 09:39:23;32901.00;0.11;57.60;0.00;0.00;0.62;;;;;34.60;1.00;;;;;;2282624;40;3561;-88
2022/07/03 09:41:58;136679.00;0.46;236.85;0.00;0.00;0.62;;;;;34.50;1.00;;;;;;2272134;61;1102;-89
2022/07/03 09:44:36;1247352.00;4.16;2176.07;92086.00;0.31;159.91;;;;;34.50;1.00;;;;;;2271970;61;2138;-88
2022/07/03 09:47:28;477977.00;1.59;823.92;16928.00;0.06;29.95;;;;;34.70;1.00;;;;;;2272028;61;1061;-88
2022/07/03 09:49:57;389614.00;1.30;671.95;93647.00;0.31;162.60;;;;;34.60;1.00;;;;;;2295842;56;3786;-88
2022/07/03 09:52:30;60703.00;0.20;105.69;0.00;0.00;0.62;;;;;34.40;1.00;;;;;;2272634;61;1083;-88
2022/07/03 09:54:57;157940.00;0.53;273.49;0.00;0.00;0.62;;;;;33.90;1.00;;;;;;2272648;61;1694;-86
2022/07/03 09:57:25;175722.00;0.59;304.12;0.00;0.00;0.62;;;;;33.60;1.00;;;;;;2278291;55;3774;-88
2022/07/03 10:00:11;358000.00;1.19;617.61;32981.00;0.11;57.74;;;;;33.30;1.00;;;;;;2274138;61;2005;-88
2022/07/03 10:02:56;72796.00;0.24;126.59;0.00;0.00;0.62;;;;;33.10;1.00;;;;;;2272704;61;1556;-90
2022/07/03 10:05:24;108587.00;0.36;188.39;0.00;0.00;0.62;;;;;33.30;1.00;;;;;;2272822;61;1042;-88
2022/07/03 10:07:52;835146.00;2.78;1442.49;0.00;0.00;0.62;;;;;33.80;1.00;;;;;;2272577;61;1209;-87
2022/07/03 10:10:21;196919.00;0.66;340.62;63241.00;0.21;110.08;;;;;33.90;1.00;;;;;;2272539;61;1405;-88
2022/07/03 10:12:50;0.00;0.00;0.62;0.00;0.00;0.62;;;;;33.90;1.00;;;;;;2272657;61;1025;-89
2022/07/03 10:15:17;41813.00;0.14;73.03;0.00;0.00;0.62;;;;;33.90;1.00;;;;;;2272752;61;1083;-87
2022/07/03 10:17:49;137580.00;0.46;238.40;0.00;0.00;0.62;;;;;33.70;1.00;;;;;;2272374;61;1546;-89
2022/07/03 10:20:24;70559.00;0.24;122.73;0.00;0.00;0.62;;;;;33.70;1.00;;;;;;2272584;61;2014;-88
2022/07/03 10:22:51;124041.00;0.41;215.05;0.00;0.00;0.62;;;;;33.20;1.00;;;;;;2272570;61;1066;-88
2022/07/03 10:25:18;64269.00;0.21;111.86;0.00;0.00;0.62;;;;;33.60;1.00;;;;;;2272516;61;1028;-91
2022/07/03 10:27:46;362474.00;1.21;625.30;20498.00;0.07;36.13;;;;;34.00;1.00;;;;;;2272563;61;1096;-88